Time;durP1;ratioP1;P1;durP2;ratioP2;P2;SDS_P1;SDS_P2;PMS_P1;PMS_P2;Temp;Humidity;BMP_temperature;BMP_pressure;BME280_temperature;BME280_humidity;BME280_pressure;Samples;Min_cycle;Max_cycle;Signal;HPM_P1;HPM_P2
2023/08/11 00:00:08;;;;;;;3.83;3.53;;;;;;;16.38;100.00;63688.44;5086964;28;20214;-77
2023/08/11 00:02:36;;;;;;;5.65;4.65;;;;;;;16.44;100.00;63697.25;5100024;28;20469;-77
2023/08/11 00:05:03;;;;;;;6.20;4.35;;;;;;;16.40;100.00;63693.09;5101486;28;20248;-78
2023/08/11 00:07:30;;;;;;;5.00;4.50;;;;;;;16.43;100.00;63695.69;5090321;28;20263;-78
2023/08/11 00:09:57;;;;;;;6.22;4.60;;;;;;;16.39;100.00;63694.63;5096454;28;20215;-76
2023/08/11 00:12:25;;;;;;;6.13;5.55;;;;;;;16.39;100.00;63692.06;5105542;28;20645;-76
2023/08/11 00:14:52;;;;;;;5.65;4.85;;;;;;;16.33;100.00;63685.28;5099265;28;20211;-77
2023/08/11 00:17:21;;;;;;;4.85;4.55;;;;;;;16.30;100.00;63679.59;5098367;28;20228;-77
2023/08/11 00:19:48;;;;;;;5.22;4.82;;;;;;;16.24;100.00;63678.50;5086861;28;20220;-78
2023/08/11 00:22:16;;;;;;;9.07;5.53;;;;;;;16.18;100.00;63677.91;5091866;28;20231;-77
2023/08/11 00:24:43;;;;;;;6.68;5.25;;;;;;;16.07;100.00;63658.75;5088559;28;20279;-77
2023/08/11 00:27:11;;;;;;;4.97;4.68;;;;;;;16.04;100.00;63656.19;5109334;28;20196;-77
2023/08/11 00:29:38;;;;;;;8.77;5.10;;;;;;;15.97;100.00;63646.31;5106274;28;20218;-76
2023/08/11 00:32:05;;;;;;;5.47;5.18;;;;;;;15.88;100.00;63641.56;5095327;28;20200;-77
2023/08/11 00:34:33;;;;;;;5.35;4.90;;;;;;;15.73;100.00;63623.41;5087636;28;20238;-77
2023/08/11 00:37:01;;;;;;;5.63;5.22;;;;;;;15.69;100.00;63619.25;5086878;28;20263;-77
2023/08/11 00:39:29;;;;;;;9.05;5.47;;;;;;;15.69;100.00;63622.34;5085792;28;20223;-76
2023/08/11 00:41:56;;;;;;;4.90;4.55;;;;;;;15.64;100.00;63614.59;5089541;28;20200;-77
2023/08/11 00:44:23;;;;;;;5.13;4.72;;;;;;;15.59;100.00;63606.81;5090479;28;20252;-75
2023/08/11 00:46:50;;;;;;;6.03;5.28;;;;;;;15.51;100.00;63600.56;5087673;28;20205;-77
2023/08/11 00:49:17;;;;;;;5.28;4.63;;;;;;;15.47;100.00;63596.91;5097154;28;20234;-78
2023/08/11 00:51:48;;;;;;;7.70;5.25;;;;;;;15.44;100.00;63593.78;5103677;28;20214;-78
2023/08/11 00:54:17;;;;;;;5.53;4.78;;;;;;;15.45;100.00;63594.81;5094787;28;20260;-77
2023/08/11 00:56:47;;;;;;;5.72;5.32;;;;;;;15.48;100.00;63600.00;5103363;28;20199;-77
2023/08/11 00:59:16;;;;;;;5.20;4.80;;;;;;;15.53;100.00;63600.06;5103209;28;20231;-76
2023/08/11 01:01:43;;;;;;;5.97;4.93;;;;;;;15.57;100.00;63612.44;5096060;28;20204;-77
2023/08/11 01:04:12;;;;;;;5.63;5.22;;;;;;;15.57;100.00;63604.22;5093130;28;20575;-77
2023/08/11 01:06:44;;;;;;;5.32;4.93;;;;;;;15.52;100.00;63599.00;5108512;28;20192;-77
2023/08/11 01:09:27;;;;;;;4.90;4.60;;;;;;;15.51;100.00;63597.97;5112498;28;20417;-77
2023/08/11 01:12:19;;;;;;;4.95;4.65;;;;;;;15.47;100.00;63602.03;5104839;28;20196;-77
2023/08/11 01:14:54;;;;;;;5.82;5.43;;;;;;;15.33;100.00;63582.34;5101226;28;20532;-78
2023/08/11 01:17:22;;;;;;;6.15;5.68;;;;;;;15.18;100.00;63569.31;5100345;28;20231;-76
2023/08/11 01:19:50;;;;;;;5.65;5.25;;;;;;;15.17;100.00;63565.19;5110233;28;20314;-76
2023/08/11 01:22:23;;;;;;;7.55;5.68;;;;;;;15.17;100.00;63565.19;5097381;28;20271;-78
2023/08/11 01:24:52;;;;;;;5.07;4.68;;;;;;;15.18;100.00;63558.53;5092245;28;20283;-77
2023/08/11 01:27:20;;;;;;;5.82;5.32;;;;;;;15.11;100.00;63556.91;5091156;28;20512;-76
2023/08/11 01:29:47;;;;;;;5.95;5.45;;;;;;;15.05;100.00;63553.22;5088514;28;20232;-79
2023/08/11 01:32:16;;;;;;;6.10;5.57;;;;;;;15.02;100.00;63550.13;5089248;28;20264;-78
2023/08/11 01:34:43;;;;;;;5.15;4.75;;;;;;;14.98;100.00;63548.53;5090905;28;20213;-78
2023/08/11 01:37:10;;;;;;;5.13;4.82;;;;;;;15.02;100.00;63550.13;5103368;28;20226;-77
2023/08/11 01:39:38;;;;;;;6.10;5.50;;;;;;;15.03;100.00;63553.72;5103455;28;20216;-77
2023/08/11 01:42:07;;;;;;;5.07;4.68;;;;;;;15.04;100.00;63554.75;5090992;28;20196;-77
2023/08/11 01:44:34;;;;;;;4.97;4.53;;;;;;;15.02;100.00;63545.50;5105715;28;20470;-77
2023/08/11 01:47:03;;;;;;;5.18;4.30;;;;;;;15.03;100.00;63549.13;5094533;28;20200;-76
2023/08/11 01:49:31;;;;;;;5.05;4.75;;;;;;;15.03;100.00;63556.81;5099013;28;20412;-77
2023/08/11 01:51:58;;;;;;;5.10;4.70;;;;;;;15.00;100.00;63548.56;5104860;28;20197;-76
2023/08/11 01:54:25;;;;;;;6.45;5.10;;;;;;;14.93;100.00;63540.75;5098583;28;20223;-77
2023/08/11 01:56:53;;;;;;;5.22;4.53;;;;;;;14.93;100.00;63538.72;5104124;28;20211;-77
2023/08/11 01:59:23;;;;;;;5.45;4.95;;;;;;;14.91;100.00;63536.13;5096253;28;20231;-77
2023/08/11 02:01:50;;;;;;;5.80;5.30;;;;;;;14.86;100.00;63536.56;5105912;28;20232;-77
2023/08/11 02:04:17;;;;;;;6.00;5.15;;;;;;;14.85;100.00;63537.59;5094246;28;20217;-76
2023/08/11 02:06:45;;;;;;;6.22;4.43;;;;;;;14.85;100.00;63532.97;5088054;28;20201;-77
2023/08/11 02:09:12;;;;;;;5.50;5.00;;;;;;;14.85;100.00;63537.59;5090075;28;20224;-76
2023/08/11 02:11:40;;;;;;;5.25;4.80;;;;;;;14.92;100.00;63539.72;5102756;28;20206;-76
2023/08/11 02:14:07;;;;;;;5.03;4.63;;;;;;;14.91;100.00;63543.81;5105476;28;20352;-76
2023/08/11 02:16:37;;;;;;;4.80;4.43;;;;;;;14.93;100.00;63541.28;5099789;28;20219;-76
2023/08/11 02:19:04;;;;;;;4.97;4.68;;;;;;;14.95;100.00;63538.25;5087657;28;20225;-77
2023/08/11 02:21:32;;;;;;;4.25;4.05;;;;;;;14.96;100.00;63541.34;5093728;28;20192;-76
2023/08/11 02:23:58;;;;;;;4.25;3.95;;;;;;;14.97;100.00;63550.06;5102803;28;20247;-78
2023/08/11 02:26:25;;;;;;;3.78;3.58;;;;;;;14.97;100.00;63544.94;5097724;28;20199;-76
2023/08/11 02:28:52;;;;;;;4.65;4.28;;;;;;;15.05;100.00;63558.88;5108012;28;20239;-77
2023/08/11 02:31:19;;;;;;;4.30;4.00;;;;;;;15.15;100.00;63563.13;5094353;28;20207;-77
2023/08/11 02:33:48;;;;;;;4.43;4.13;;;;;;;15.16;100.00;63566.72;5097401;28;20220;-77
2023/08/11 02:36:15;;;;;;;4.70;4.30;;;;;;;15.14;100.00;63565.16;5087745;28;20209;-77
2023/08/11 02:38:42;;;;;;;5.05;4.75;;;;;;;15.20;100.00;63565.75;5102533;28;20231;-77
2023/08/11 02:41:11;;;;;;;4.93;4.63;;;;;;;15.24;100.00;63575.03;5110516;28;20293;-76
2023/08/11 02:43:38;;;;;;;4.95;4.50;;;;;;;15.22;100.00;63567.81;5105212;28;20414;-77
2023/08/11 02:46:06;;;;;;;4.70;4.40;;;;;;;15.24;100.00;63572.47;5094109;28;20228;-77
2023/08/11 02:48:34;;;;;;;4.28;3.88;;;;;;;15.24;100.00;63572.47;5098491;28;20215;-77
2023/08/11 02:51:04;;;;;;;5.28;4.00;;;;;;;15.25;100.00;63573.50;5103873;28;20212;-77
2023/08/11 02:53:31;;;;;;;3.80;3.50;;;;;;;15.25;100.00;63573.50;5089382;28;20211;-77
2023/08/11 02:56:00;;;;;;;4.32;4.03;;;;;;;15.27;100.00;63578.69;5100674;28;20235;-76
2023/08/11 02:58:28;;;;;;;4.53;4.13;;;;;;;15.22;100.00;63575.53;5087206;28;20251;-77
2023/08/11 03:00:55;;;;;;;4.22;3.92;;;;;;;15.26;100.00;63574.53;5089058;28;20226;-77
2023/08/11 03:03:21;;;;;;;3.97;3.78;;;;;;;15.25;100.00;63571.47;5093298;28;20217;-76
2023/08/11 03:05:49;;;;;;;4.53;4.10;;;;;;;15.25;100.00;63576.06;5102796;28;20448;-76
2023/08/11 03:08:17;;;;;;;8.48;4.13;;;;;;;15.20;100.00;63568.84;5106294;28;20578;-77
2023/08/11 03:10:44;;;;;;;4.57;4.20;;;;;;;15.14;100.00;63562.06;5105905;28;20758;-77
2023/08/11 03:13:11;;;;;;;5.25;4.28;;;;;;;15.14;100.00;63562.06;5093887;28;20224;-76
2023/08/11 03:15:38;;;;;;;4.22;3.78;;;;;;;15.14;100.00;63562.59;5106709;28;20273;-76
2023/08/11 03:18:06;;;;;;;4.10;3.83;;;;;;;15.16;100.00;63561.56;5103914;28;20259;-76
2023/08/11 03:20:33;;;;;;;6.30;4.05;;;;;;;15.15;100.00;63561.06;5091124;28;20272;-77
2023/08/11 03:23:00;;;;;;;3.40;3.30;;;;;;;15.19;100.00;63569.81;5086617;28;20224;-77
2023/08/11 03:25:28;;;;;;;4.35;3.97;;;;;;;15.26;100.00;63574.53;5087880;28;20197;-76
2023/08/11 03:27:56;;;;;;;6.45;3.75;;;;;;;15.22;100.00;63575.53;5096290;28;20246;-77
2023/08/11 03:30:23;;;;;;;3.30;3.10;;;;;;;15.16;100.00;63569.28;5103872;28;20199;-77
2023/08/11 03:32:51;;;;;;;4.03;3.70;;;;;;;15.18;100.00;63563.66;5107464;28;20196;-77
2023/08/11 03:35:18;;;;;;;3.67;3.47;;;;;;;15.23;100.00;63569.38;5108464;28;20196;-76
2023/08/11 03:37:45;;;;;;;3.97;3.05;;;;;;;15.22;100.00;63567.81;5103891;28;20256;-77
2023/08/11 03:40:13;;;;;;;3.20;2.90;;;;;;;15.24;100.00;63569.91;5100836;28;20261;-75
2023/08/11 03:42:43;;;;;;;3.40;2.90;;;;;;;15.28;100.00;63579.72;5095693;28;20208;-77
2023/08/11 03:45:12;;;;;;;2.97;2.78;;;;;;;15.34;100.00;63588.50;5098002;28;20855;-77
2023/08/11 03:47:40;;;;;;;2.90;2.70;;;;;;;15.35;100.00;63583.88;5087260;28;20208;-77
2023/08/11 03:50:08;;;;;;;3.13;2.92;;;;;;;15.35;100.00;63583.88;5089829;28;20206;-76
2023/08/11 03:52:36;;;;;;;4.03;3.50;;;;;;;15.29;100.00;63580.22;5092383;28;20193;-77
2023/08/11 03:55:03;;;;;;;3.17;2.97;;;;;;;15.37;100.00;63580.84;5094621;28;20207;-77
2023/08/11 03:57:30;;;;;;;3.35;3.00;;;;;;;15.36;100.00;63582.38;5096700;28;20267;-77
2023/08/11 03:59:59;;;;;;;2.63;2.53;;;;;;;15.41;100.00;63590.16;5086585;28;20274;-77
2023/08/11 04:02:26;;;;;;;2.90;2.80;;;;;;;15.44;100.00;63590.72;5098137;28;20211;-77
2023/08/11 04:04:53;;;;;;;5.70;2.92;;;;;;;15.49;100.00;63604.13;5093134;28;20400;-77
2023/08/11 04:07:21;;;;;;;3.10;2.90;;;;;;;15.56;100.00;63605.75;5095443;28;20188;-78
2023/08/11 04:09:48;;;;;;;2.83;2.72;;;;;;;15.60;100.00;63610.41;5102627;28;20423;-78
2023/08/11 04:12:16;;;;;;;3.00;2.80;;;;;;;15.68;100.00;63613.59;5091891;28;20212;-78
2023/08/11 04:14:44;;;;;;;3.25;2.80;;;;;;;15.72;100.00;63622.38;5097210;28;20399;-78
2023/08/11 04:17:13;;;;;;;5.38;2.90;;;;;;;15.78;100.00;63626.56;5096293;28;20200;-75
2023/08/11 04:19:41;;;;;;;4.63;2.58;;;;;;;15.83;100.00;63631.25;5084354;28;20231;-77
2023/08/11 04:22:09;;;;;;;4.47;2.75;;;;;;;15.86;100.00;63642.59;5086982;28;20493;-76
2023/08/11 04:24:36;;;;;;;2.70;2.55;;;;;;;15.91;100.00;63639.56;5093263;28;20211;-77
2023/08/11 04:27:04;;;;;;;2.90;2.72;;;;;;;15.83;100.00;63638.94;5109946;28;20219;-76
2023/08/11 04:29:32;;;;;;;2.75;2.42;;;;;;;15.79;100.00;63627.59;5097840;28;20232;-77
2023/08/11 04:32:04;;;;;;;2.50;2.30;;;;;;;15.95;100.00;63646.28;5102545;28;20229;-75
2023/08/11 04:34:32;;;;;;;2.92;2.80;;;;;;;16.03;100.00;63657.69;5104692;28;20217;-76
2023/08/11 04:36:59;;;;;;;3.17;2.78;;;;;;;16.14;100.00;63666.03;5106199;28;20191;-76
2023/08/11 04:39:26;;;;;;;2.60;2.45;;;;;;;16.26;100.00;63683.66;5104427;28;20251;-75
2023/08/11 04:41:53;;;;;;;2.33;2.22;;;;;;;16.26;100.00;63683.16;5099300;28;20204;-75
2023/08/11 04:44:20;;;;;;;2.72;2.53;;;;;;;16.44;100.00;63699.31;5086378;28;20230;-77
2023/08/11 04:46:47;;;;;;;2.55;2.45;;;;;;;16.42;100.00;63699.78;5098445;28;20229;-76
2023/08/11 04:49:15;;;;;;;2.40;2.30;;;;;;;16.56;100.00;63711.81;5092470;28;20223;-77
2023/08/11 04:51:43;;;;;;;2.60;2.40;;;;;;;16.50;100.00;63703.00;5085126;28;20372;-76
2023/08/11 04:54:11;;;;;;;2.45;2.25;;;;;;;16.50;100.00;63708.16;5085690;28;20216;-76
2023/08/11 04:56:38;;;;;;;2.35;2.08;;;;;;;16.53;100.00;63706.63;5100466;28;20207;-77
2023/08/11 04:59:12;;;;;;;2.95;2.67;;;;;;;16.53;100.00;63703.56;5087143;28;20421;-76
2023/08/11 05:01:39;;;;;;;2.58;2.45;;;;;;;16.79;100.00;63731.13;5104893;28;20187;-76
2023/08/11 05:04:06;;;;;;;2.42;2.33;;;;;;;16.80;100.00;63737.31;5106566;28;20243;-77
2023/08/11 05:06:33;;;;;;;2.58;2.40;;;;;;;16.75;100.00;63726.44;5099079;28;20208;-77
2023/08/11 05:09:02;;;;;;;4.53;2.63;;;;;;;16.77;100.00;63728.53;5107186;28;20235;-77
2023/08/11 05:11:29;;;;;;;3.42;2.47;;;;;;;16.79;100.00;63733.19;5085875;28;20547;-78
2023/08/11 05:13:57;;;;;;;3.35;2.30;;;;;;;16.60;100.00;63711.34;5088764;28;20243;-76
2023/08/11 05:16:24;;;;;;;2.58;2.25;;;;;;;16.65;100.00;63718.59;5099018;28;20496;-76
2023/08/11 05:18:51;;;;;;;2.83;2.53;;;;;;;16.70;100.00;63723.81;5094974;28;20282;-81
2023/08/11 05:21:18;;;;;;;3.72;2.38;;;;;;;16.60;100.00;63713.41;5101619;28;20204;-76
2023/08/11 05:23:46;;;;;;;2.30;2.10;;;;;;;16.69;100.00;63725.84;5108605;28;20350;-76
2023/08/11 05:26:15;;;;;;;2.88;2.55;;;;;;;16.94;100.00;63751.34;5100065;28;20207;-76
2023/08/11 05:28:42;;;;;;;2.45;2.35;;;;;;;17.15;100.00;63773.72;5094239;28;20220;-77
2023/08/11 05:31:10;;;;;;;3.95;2.67;;;;;;;16.87;100.00;63742.03;5086695;28;20272;-76
2023/08/11 05:33:37;;;;;;;3.15;2.97;;;;;;;16.94;100.00;63746.75;5083649;28;20235;-76
2023/08/11 05:36:04;;;;;;;4.50;3.08;;;;;;;17.23;100.00;63779.50;5085581;28;20192;-76
2023/08/11 05:38:31;;;;;;;2.40;2.30;;;;;;;17.19;100.00;63777.91;5101818;28;20320;-76
2023/08/11 05:40:59;;;;;;;5.10;2.60;;;;;;;17.15;100.00;63773.22;5096737;28;20204;-76
2023/08/11 05:43:27;;;;;;;2.90;2.70;;;;;;;17.31;100.00;63787.28;5093020;28;20454;-78
2023/08/11 05:45:54;;;;;;;2.58;2.47;;;;;;;17.36;100.00;63795.06;5093804;28;20203;-78
2023/08/11 05:48:21;;;;;;;2.63;2.42;;;;;;;17.46;100.00;63800.38;5094271;28;20320;-76
2023/08/11 05:50:50;;;;;;;3.80;2.47;;;;;;;17.67;100.00;63821.72;5104756;28;20195;-76
2023/08/11 05:53:17;;;;;;;5.35;2.88;;;;;;;17.73;100.00;63828.47;5087063;28;20427;-77
2023/08/11 05:55:44;;;;;;;3.92;2.67;;;;;;;17.80;100.00;63838.34;5103485;28;20233;-76
2023/08/11 05:58:11;;;;;;;5.03;2.45;;;;;;;17.85;100.00;63840.97;5095666;28;20224;-76
2023/08/11 06:00:40;;;;;;;2.47;2.33;;;;;;;17.86;100.00;63844.56;5094261;28;20311;-76
2023/08/11 06:03:07;;;;;;;2.83;2.42;;;;;;;17.89;100.00;63849.75;5085600;28;20257;-75
2023/08/11 06:05:34;;;;;;;3.22;2.78;;;;;;;18.02;100.00;63858.16;5094961;28;20202;-76
2023/08/11 06:08:01;;;;;;;2.50;2.40;;;;;;;17.62;100.00;63819.06;5088083;28;20227;-77
2023/08/11 06:10:28;;;;;;;3.78;2.70;;;;;;;17.70;100.00;63830.50;5094691;28;20195;-76
2023/08/11 06:12:56;;;;;;;2.78;2.67;;;;;;;17.86;100.00;63844.56;5089339;28;20295;-76
2023/08/11 06:15:23;;;;;;;3.50;3.15;;;;;;;17.72;100.00;63835.16;5105465;28;20214;-77
2023/08/11 06:17:51;;;;;;;3.00;2.72;;;;;;;17.58;100.00;63817.47;5109671;28;20203;-76
2023/08/11 06:20:19;;;;;;;4.05;2.97;;;;;;;17.61;100.00;63818.56;5102336;28;20480;-77
2023/08/11 06:22:46;;;;;;;3.08;2.97;;;;;;;17.60;100.00;63817.00;5087864;28;20393;-77
2023/08/11 06:25:15;;;;;;;4.60;3.53;;;;;;;17.81;100.00;63844.53;5101206;28;20304;-76
2023/08/11 06:27:42;;;;;;;3.15;2.83;;;;;;;17.88;100.00;63846.66;5107997;28;20187;-77
2023/08/11 06:30:11;;;;;;;6.07;2.88;;;;;;;18.01;100.00;63862.28;5099727;28;20196;-76
2023/08/11 06:32:38;;;;;;;6.68;2.92;;;;;;;18.21;100.00;63883.09;5087273;28;20196;-77
2023/08/11 06:35:08;;;;;;;4.60;2.80;;;;;;;18.37;100.00;63902.88;5095569;28;20219;-77
2023/08/11 06:37:39;;;;;;;3.38;3.00;;;;;;;18.44;100.00;63904.50;5087784;28;20188;-77
2023/08/11 06:40:08;;;;;;;3.40;3.17;;;;;;;18.40;100.00;63902.91;5088927;28;20275;-77
2023/08/11 06:42:35;;;;;;;2.70;2.60;;;;;;;18.46;100.00;63903.50;5091343;28;20278;-77
2023/08/11 06:45:03;;;;;;;4.28;3.33;;;;;;;18.47;100.00;63907.63;5090637;28;20204;-77
2023/08/11 06:47:31;;;;;;;2.92;2.72;;;;;;;18.39;100.00;63899.28;5093257;28;20223;-77
2023/08/11 06:49:58;;;;;;;7.15;3.42;;;;;;;18.31;100.00;63891.47;5092535;28;20223;-78
2023/08/11 06:52:27;;;;;;;3.58;3.20;;;;;;;18.37;99.87;63895.16;5088729;28;20196;-77
2023/08/11 06:54:54;;;;;;;3.83;2.83;;;;;;;18.59;100.00;63925.28;5090799;28;20265;-78
2023/08/11 06:57:21;;;;;;;3.08;2.78;;;;;;;18.64;99.16;63927.41;5091193;28;20458;-77
2023/08/11 06:59:49;;;;;;;5.63;3.10;;;;;;;18.86;100.00;63948.28;5087283;28;20537;-77
2023/08/11 07:02:16;;;;;;;3.60;3.10;;;;;;;19.12;97.21;63974.88;5089489;28;20192;-77
2023/08/11 07:04:44;;;;;;;6.72;3.30;;;;;;;19.13;90.53;63986.75;5093509;28;20246;-75
2023/08/11 07:07:10;;;;;;;2.72;2.63;;;;;;;19.02;92.18;63967.00;5105562;28;20199;-77
2023/08/11 07:09:39;;;;;;;3.30;3.00;;;;;;;19.12;90.14;63972.78;5108288;28;20215;-77
2023/08/11 07:12:06;;;;;;;7.65;3.50;;;;;;;19.13;92.72;63984.19;5107760;28;20526;-76
2023/08/11 07:14:33;;;;;;;4.65;3.50;;;;;;;19.16;91.56;63979.56;5107199;28;20215;-76
2023/08/11 07:17:00;;;;;;;3.65;3.35;;;;;;;19.26;92.71;63989.97;5090606;28;20211;-77
2023/08/11 07:19:27;;;;;;;5.72;3.47;;;;;;;19.53;90.97;64015.06;5101869;28;20235;-75
2023/08/11 07:21:55;;;;;;;5.70;3.97;;;;;;;19.54;88.90;64018.69;5104439;28;20236;-78
2023/08/11 07:24:22;;;;;;;6.47;3.67;;;;;;;19.76;89.22;64041.63;5108785;28;20230;-78
2023/08/11 07:26:50;;;;;;;3.47;3.15;;;;;;;19.72;85.11;64042.63;5108538;28;20523;-78
2023/08/11 07:29:18;;;;;;;4.70;3.60;;;;;;;19.74;85.94;64033.84;5107704;28;20290;-79
2023/08/11 07:31:46;;;;;;;3.03;2.83;;;;;;;20.04;85.46;64068.25;5110449;28;20205;-79
2023/08/11 07:34:13;;;;;;;3.50;2.65;;;;;;;20.29;78.36;64096.94;5110792;28;20211;-77
2023/08/11 07:36:40;;;;;;;6.72;3.03;;;;;;;20.52;77.25;64120.41;5109514;28;20254;-79
2023/08/11 07:39:09;;;;;;;2.53;2.42;;;;;;;20.74;74.35;64143.41;5107477;28;20227;-78
2023/08/11 07:41:36;;;;;;;4.72;3.35;;;;;;;20.62;73.17;64133.97;5093082;28;20206;-77
2023/08/11 07:44:05;;;;;;;2.30;2.20;;;;;;;20.78;71.19;64147.56;5106804;28;20228;-78
2023/08/11 07:46:32;;;;;;;3.45;2.40;;;;;;;20.59;70.83;64130.84;5103117;28;20206;-77
2023/08/11 07:48:59;;;;;;;2.58;2.40;;;;;;;20.41;68.80;64106.38;5108894;28;20239;-77
2023/08/11 07:51:26;;;;;;;2.65;2.45;;;;;;;20.29;68.03;64101.59;5109891;28;20191;-78
2023/08/11 07:53:54;;;;;;;2.65;2.45;;;;;;;20.47;66.21;64120.38;5108651;28;20216;-78
2023/08/11 07:56:20;;;;;;;2.40;2.30;;;;;;;20.61;66.44;64129.81;5090185;28;20200;-78
2023/08/11 07:58:48;;;;;;;4.20;2.70;;;;;;;20.74;67.58;64145.47;5086350;28;20298;-78
2023/08/11 08:01:18;;;;;;;2.90;2.45;;;;;;;21.01;64.49;64171.59;5091858;28;20231;-76
2023/08/11 08:03:46;;;;;;;3.00;2.53;;;;;;;21.23;63.14;64196.63;5089083;28;20223;-79
2023/08/11 08:06:14;;;;;;;2.10;2.00;;;;;;;21.34;61.52;64206.06;5106581;28;20480;-78
2023/08/11 08:08:41;;;;;;;3.30;2.42;;;;;;;21.45;61.76;64220.13;5105640;28;20294;-77
2023/08/11 08:11:08;;;;;;;2.95;2.70;;;;;;;21.68;61.30;64238.97;5107611;28;20199;-77
2023/08/11 08:13:35;;;;;;;2.15;2.05;;;;;;;21.78;60.94;64254.63;5104165;28;20401;-78
2023/08/11 08:16:02;;;;;;;2.38;2.17;;;;;;;21.70;60.74;64245.75;5107733;28;20204;-80
2023/08/11 08:18:30;;;;;;;2.58;2.40;;;;;;;21.48;60.69;64217.56;5106301;28;20223;-77
2023/08/11 08:20:57;;;;;;;2.85;2.20;;;;;;;21.45;61.88;64220.13;5109108;28;20270;-78
2023/08/11 08:23:24;;;;;;;2.35;2.20;;;;;;;21.43;58.62;64214.94;5107066;28;20225;-79
2023/08/11 08:25:51;;;;;;;2.28;2.17;;;;;;;21.04;58.84;64177.31;5107548;28;20507;-77
2023/08/11 08:28:18;;;;;;;3.00;2.17;;;;;;;20.95;59.80;64170.47;5107095;28;20223;-77
2023/08/11 08:30:46;;;;;;;2.67;2.53;;;;;;;21.32;58.63;64211.75;5107657;28;20203;-77
2023/08/11 08:33:13;;;;;;;2.53;2.42;;;;;;;21.18;58.21;64186.22;5093891;28;20216;-79
2023/08/11 08:35:42;;;;;;;2.58;2.40;;;;;;;21.31;60.52;64202.91;5098940;28;20229;-80
2023/08/11 08:38:09;;;;;;;2.08;1.90;;;;;;;21.61;60.08;64236.84;5108901;28;20216;-77
2023/08/11 08:40:36;;;;;;;2.40;2.30;;;;;;;21.86;59.61;64259.88;5091418;28;20291;-80
2023/08/11 08:43:04;;;;;;;2.55;2.40;;;;;;;21.95;59.04;64266.69;5086346;28;20479;-78
2023/08/11 08:45:32;;;;;;;5.20;2.30;;;;;;;22.13;57.68;64288.09;5087016;28;20214;-80
2023/08/11 08:48:00;;;;;;;2.20;2.10;;;;;;;22.08;57.26;64282.34;5085636;28;20399;-77
2023/08/11 08:50:29;;;;;;;2.65;2.42;;;;;;;21.92;55.75;64265.63;5093558;28;20270;-77
2023/08/11 08:53:01;;;;;;;2.15;2.05;;;;;;;21.88;55.67;64266.63;5085958;28;20234;-75
2023/08/11 08:55:28;;;;;;;2.95;2.75;;;;;;;22.04;55.78;64283.88;5086361;28;20192;-77
2023/08/11 08:57:56;;;;;;;2.10;2.00;;;;;;;22.30;53.25;64307.94;5092213;28;20199;-78
2023/08/11 09:00:25;;;;;;;2.60;2.30;;;;;;;22.36;52.97;64316.81;5107627;28;20543;-78
2023/08/11 09:02:55;;;;;;;3.35;2.38;;;;;;;22.58;51.99;64340.34;5110127;28;20195;-78
2023/08/11 09:05:23;;;;;;;2.13;2.00;;;;;;;22.87;52.41;64368.06;5112358;28;20188;-78
2023/08/11 09:07:50;;;;;;;2.33;2.13;;;;;;;23.09;51.68;64387.94;5105380;28;20222;-79
2023/08/11 09:10:19;;;;;;;3.20;2.10;;;;;;;23.23;51.45;64400.00;5105673;28;20198;-80
2023/08/11 09:12:46;;;;;;;2.72;2.15;;;;;;;23.33;52.03;64415.66;5092007;28;20222;-78
2023/08/11 09:15:14;;;;;;;1.90;1.83;;;;;;;23.27;50.89;64406.25;5104534;28;20195;-78
2023/08/11 09:17:42;;;;;;;2.95;2.30;;;;;;;22.91;50.19;64369.13;5109390;28;20199;-79
2023/08/11 09:20:12;;;;;;;2.63;2.40;;;;;;;22.93;50.90;64374.34;5115056;28;20226;-78
2023/08/11 09:22:41;;;;;;;2.40;2.30;;;;;;;23.04;51.04;64379.63;5113148;28;20195;-77
2023/08/11 09:25:10;;;;;;;5.90;2.10;;;;;;;22.75;51.42;64358.13;5110652;28;20198;-77
2023/08/11 09:27:38;;;;;;;3.15;2.28;;;;;;;22.66;51.37;64342.97;5108638;28;20231;-77
2023/08/11 09:30:07;;;;;;;2.47;2.38;;;;;;;22.41;51.20;64322.03;5098148;28;20254;-77
2023/08/11 09:32:34;;;;;;;2.00;1.80;;;;;;;22.20;51.18;64298.00;5091186;28;20226;-77
2023/08/11 09:35:03;;;;;;;2.45;2.28;;;;;;;22.21;51.96;64298.53;5106596;28;20217;-77
2023/08/11 09:37:32;;;;;;;3.22;2.83;;;;;;;22.43;51.72;64324.13;5096196;28;20211;-77
2023/08/11 09:40:03;;;;;;;5.78;2.33;;;;;;;22.85;50.31;64368.56;5092279;28;20232;-77
2023/08/11 09:42:30;;;;;;;3.65;2.90;;;;;;;23.53;48.88;64439.22;5101025;28;20279;-78
2023/08/11 09:44:58;;;;;;;2.40;2.30;;;;;;;24.00;48.59;64485.78;5102041;28;20405;-77
2023/08/11 09:47:28;;;;;;;3.03;1.80;;;;;;;24.52;47.49;64541.81;5107815;28;20207;-78
2023/08/11 09:49:57;;;;;;;2.20;2.00;;;;;;;24.62;46.95;64544.47;5101136;28;20247;-79
2023/08/11 09:52:24;;;;;;;2.75;2.35;;;;;;;24.42;46.09;64531.84;5098175;28;20267;-79
2023/08/11 09:54:55;;;;;;;2.20;2.10;;;;;;;24.69;46.24;64554.41;5112084;28;20233;-80
2023/08/11 09:57:23;;;;;;;3.28;2.15;;;;;;;24.42;45.21;64529.25;5111917;28;20192;-78
2023/08/11 09:59:53;;;;;;;2.30;2.20;;;;;;;23.95;44.90;64477.44;5109060;28;20227;-78
2023/08/11 10:02:29;;;;;;;2.08;1.80;;;;;;;24.02;45.51;64487.91;5112886;28;20227;-76
2023/08/11 10:04:59;;;;;;;2.10;2.00;;;;;;;23.79;46.48;64463.81;5110528;28;20207;-79
2023/08/11 10:07:33;;;;;;;2.40;2.20;;;;;;;23.61;46.56;64441.84;5109717;28;20192;-78
2023/08/11 10:10:01;;;;;;;2.10;1.90;;;;;;;23.97;45.68;64482.13;5098561;28;20202;-78
2023/08/11 10:12:29;;;;;;;2.95;2.35;;;;;;;23.97;45.76;64485.25;5090172;28;20196;-78
2023/08/11 10:14:57;;;;;;;4.10;2.35;;;;;;;24.00;46.18;64485.28;5102438;28;20249;-79
2023/08/11 10:17:26;;;;;;;2.30;2.20;;;;;;;24.35;46.00;64524.00;5114755;28;20196;-80
2023/08/11 10:19:53;;;;;;;2.55;2.45;;;;;;;24.71;45.04;64556.50;5108823;28;20219;-79
2023/08/11 10:22:21;;;;;;;2.17;2.08;;;;;;;24.69;44.19;64554.94;5109877;28;20195;-79
2023/08/11 10:24:48;;;;;;;2.80;2.60;;;;;;;24.77;43.37;64565.91;5109570;28;20252;-79
2023/08/11 10:27:16;;;;;;;2.90;2.00;;;;;;;25.22;43.09;64609.91;5106062;28;20196;-79
2023/08/11 10:29:47;;;;;;;2.75;2.55;;;;;;;25.25;43.06;64615.66;5089750;28;20245;-79
2023/08/11 10:32:16;;;;;;;2.75;2.55;;;;;;;24.53;45.05;64542.84;5090106;28;20218;-78
2023/08/11 10:34:44;;;;;;;2.80;2.58;;;;;;;24.16;46.53;64499.41;5087296;28;20208;-77
2023/08/11 10:37:11;;;;;;;3.38;2.58;;;;;;;24.14;46.41;64496.81;5097494;28;20207;-78
2023/08/11 10:39:40;;;;;;;2.33;2.22;;;;;;;23.75;46.06;64459.63;5107505;28;20238;-78
2023/08/11 10:42:11;;;;;;;5.30;2.63;;;;;;;23.63;46.86;64447.06;5108456;28;20199;-78
2023/08/11 10:44:43;;;;;;;2.33;2.22;;;;;;;23.60;46.96;64443.94;5101396;28;20257;-77
2023/08/11 10:47:12;;;;;;;2.40;2.30;;;;;;;23.62;47.00;64448.63;5096595;28;20192;-79
2023/08/11 10:49:42;;;;;;;2.63;2.53;;;;;;;23.56;47.00;64437.13;5092677;28;20227;-77
2023/08/11 10:52:12;;;;;;;2.70;2.58;;;;;;;23.91;46.57;64481.56;5102752;28;20202;-78
2023/08/11 10:54:49;;;;;;;3.28;2.60;;;;;;;24.13;46.25;64498.34;5097960;28;20212;-77
2023/08/11 10:57:17;;;;;;;2.53;2.33;;;;;;;24.42;45.25;64533.94;5099347;28;20201;-78
2023/08/11 10:59:44;;;;;;;7.45;2.10;;;;;;;24.69;43.74;64554.94;5097927;28;20226;-77
2023/08/11 11:02:12;;;;;;;3.17;2.08;;;;;;;24.22;44.43;64510.38;5106346;28;20215;-78
2023/08/11 11:04:44;;;;;;;2.60;2.40;;;;;;;24.34;44.30;64523.47;5093956;28;20251;-78
2023/08/11 11:07:15;;;;;;;2.35;2.25;;;;;;;24.77;43.76;64563.31;5090910;28;20570;-78
2023/08/11 11:09:42;;;;;;;3.55;2.70;;;;;;;25.11;43.38;64601.53;5103634;28;20219;-79
2023/08/11 11:12:09;;;;;;;2.75;2.55;;;;;;;24.84;43.49;64572.72;5111522;28;20205;-77
2023/08/11 11:14:36;;;;;;;2.70;2.50;;;;;;;24.73;44.02;64561.22;5102741;28;20226;-78
2023/08/11 11:17:04;;;;;;;2.70;2.50;;;;;;;24.76;44.40;64564.88;5103000;28;20391;-77
2023/08/11 11:19:32;;;;;;;3.30;2.40;;;;;;;24.14;44.17;64496.81;5100537;28;20215;-78
2023/08/11 11:22:00;;;;;;;3.25;2.67;;;;;;;24.03;47.02;64491.03;5099989;28;20246;-77
2023/08/11 11:24:28;;;;;;;2.72;2.53;;;;;;;23.69;46.17;64452.81;5087408;28;20529;-78
2023/08/11 11:26:56;;;;;;;2.70;2.50;;;;;;;24.17;44.95;64499.94;5091182;28;20197;-78
2023/08/11 11:29:23;;;;;;;3.70;2.60;;;;;;;24.53;47.86;64537.63;5099525;28;20257;-78
2023/08/11 11:31:51;;;;;;;2.60;2.50;;;;;;;24.45;48.79;64529.78;5094881;28;20271;-77